Kansas City, Missouri
Traffic Map
Current Weather Conditions
Kansas City, Missouri
Clear
Clear
32°
Feels Like: 32°
Wind Chill: 32° Ceiling: Unl
Heat Index: 32° Visibility: 10mi
Dew Point: 18° Wind: 10mph
Humidity: 43% Direction: 160° (SSE)
Pressure: 29.84in Gusts: 20mph
Raw Report DataKMKC 290054Z 16009G17KT 10SM CLR 32/18 A2984 RMK AO2 SLP095 T03170178
Traffic Incident Summary
Active as of:
Severity:
Category:
InformationThere was an issue retrieving the traffic information for this location. Please try a different location or try again shortly.
Advertisements
Track Severe Weather on mobile